Lane, Nevada
Current Conditions -  °F | °C
As of 3:53 PM on Wednesday 22 Oct 2014 (Local Time) from KELY Reporting Station
Clear Clear  
Wind Chill: 67°   Ceiling: Unl
Heat Index: 67°   Visibility: 10mi
Dew Point: 22°   Wind: 10mph
Humidity: 18%   Direction: 250°WSW
Pressure: 30.16"   Gusts: NA
Location:  39.5572°N, 115.033°W
Report Text: KELY 222253Z AUTO 25009KT 10SM CLR 19/M06 A3016 RMK AO2 SLP168 T01941056
Loading
Personal Weather Stations






























Interactive Weather Map
Tropical Storm Tracking
New forecast layout! Learn more

10-Day Weather Forecast

Advertisements
Track Severe Weather on mobile